createdAt,value
2017-01-06T00:00:08.798Z,14.36
2017-01-06T00:01:09.253Z,14.26
2017-01-06T00:02:09.310Z,14.07
2017-01-06T00:03:08.869Z,14.36
2017-01-06T00:04:09.278Z,14.26
2017-01-06T00:05:08.890Z,14.26
2017-01-06T00:06:09.242Z,14.17
2017-01-06T00:07:09.299Z,14.26
2017-01-06T00:08:09.312Z,14.26
2017-01-06T00:09:08.920Z,13.97
2017-01-06T00:10:09.320Z,13.87
2017-01-06T00:11:09.381Z,14.45
2017-01-06T00:12:08.944Z,14.17
2017-01-06T00:13:09.346Z,14.36
2017-01-06T00:14:09.351Z,14.17
2017-01-06T00:15:09.362Z,13.87
2017-01-06T00:16:08.925Z,14.07
2017-01-06T00:17:08.980Z,14.45
2017-01-06T00:18:09.038Z,14.07
2017-01-06T00:19:08.996Z,13.97
2017-01-06T00:20:09.401Z,13.97
2017-01-06T00:21:09.407Z,13.97
2017-01-06T00:22:09.365Z,13.88
2017-01-06T00:23:09.422Z,13.97
2017-01-06T00:24:09.432Z,14.07
2017-01-06T00:25:09.050Z,14.07
2017-01-06T00:26:09.005Z,13.78
2017-01-06T00:27:09.706Z,13.97
2017-01-06T00:28:09.462Z,13.78
2017-01-06T00:29:09.531Z,14.07
2017-01-06T00:30:09.428Z,14.17
2017-01-06T00:31:09.040Z,14.07
2017-01-06T00:32:09.442Z,13.68
2017-01-06T00:33:09.107Z,13.87
2017-01-06T00:34:09.063Z,13.87
2017-01-06T00:35:09.071Z,13.97
2017-01-06T00:36:09.532Z,14.07
2017-01-06T00:37:09.136Z,13.78
2017-01-06T00:38:09.493Z,13.87
2017-01-06T00:39:09.213Z,13.98
2017-01-06T00:40:09.114Z,13.97
2017-01-06T00:41:09.218Z,13.97
2017-01-06T00:42:09.123Z,13.78
2017-01-06T00:43:09.584Z,13.78
2017-01-06T00:44:09.537Z,14.17
2017-01-06T00:45:09.249Z,13.98
2017-01-06T00:46:09.157Z,13.98
2017-01-06T00:47:09.662Z,14.17
2017-01-06T00:48:09.567Z,13.87
2017-01-06T00:49:09.234Z,13.68
2017-01-06T00:50:09.188Z,14.26
2017-01-06T00:51:09.248Z,14.17
2017-01-06T00:52:09.253Z,13.78
2017-01-06T00:53:09.609Z,13.87
2017-01-06T00:54:09.616Z,14.07
2017-01-06T00:55:09.624Z,13.97
2017-01-06T00:56:09.232Z,13.68
2017-01-06T00:57:09.243Z,13.49
2017-01-06T00:58:10.702Z,13.68
2017-01-06T00:59:09.312Z,13.68
2017-01-06T01:00:09.762Z,13.68
2017-01-06T01:01:09.721Z,13.78
2017-01-06T01:02:09.381Z,13.49
2017-01-06T01:03:09.735Z,13.78
2017-01-06T01:04:09.298Z,13.48
2017-01-06T01:05:09.406Z,13.78
2017-01-06T01:06:09.762Z,13.78
2017-01-06T01:07:09.371Z,13.78
2017-01-06T01:08:09.723Z,13.48
2017-01-06T01:09:09.733Z,13.97
2017-01-06T01:10:09.741Z,13.97
2017-01-06T01:11:09.403Z,13.87
2017-01-06T01:12:09.411Z,13.78
2017-01-06T01:13:09.419Z,13.68
2017-01-06T01:14:09.824Z,13.78
2017-01-06T01:15:09.384Z,14.07
2017-01-06T01:16:09.789Z,13.78
2017-01-06T01:17:09.400Z,13.48
2017-01-06T01:18:09.854Z,13.78
2017-01-06T01:19:09.809Z,13.58
2017-01-06T01:20:09.421Z,13.97
2017-01-06T01:21:09.850Z,13.48
2017-01-06T01:22:09.487Z,13.87
2017-01-06T01:23:09.891Z,13.97
2017-01-06T01:24:09.900Z,13.68
2017-01-06T01:25:09.462Z,13.48
2017-01-06T01:26:09.915Z,13.39
2017-01-06T01:27:09.584Z,13.78
2017-01-06T01:28:24.365Z,13.78
2017-01-06T01:29:09.492Z,13.58
2017-01-06T01:30:09.551Z,13.68
2017-01-06T01:31:09.955Z,13.78
2017-01-06T01:32:09.966Z,13.68
2017-01-06T01:33:09.575Z,14.17
2017-01-06T01:34:09.586Z,13.78
2017-01-06T01:35:09.936Z,13.78
2017-01-06T01:36:09.597Z,13.78
2017-01-06T01:37:09.953Z,13.68
2017-01-06T01:38:10.009Z,13.78
2017-01-06T01:39:10.069Z,13.78
2017-01-06T01:40:10.026Z,13.68
2017-01-06T01:41:09.984Z,13.78
2017-01-06T01:42:10.042Z,13.68
2017-01-06T01:43:09.656Z,13.78
2017-01-06T01:44:10.058Z,13.68
2017-01-06T01:45:10.018Z,13.68
2017-01-06T01:46:09.628Z,13.59
2017-01-06T01:47:09.636Z,13.78
2017-01-06T01:48:10.037Z,13.78
2017-01-06T01:49:10.051Z,13.78
2017-01-06T01:50:09.711Z,13.78
2017-01-06T01:51:10.064Z,13.68
2017-01-06T01:52:09.723Z,13.59
2017-01-06T01:53:10.135Z,13.58
2017-01-06T01:54:10.136Z,13.78
2017-01-06T01:55:10.145Z,13.59
2017-01-06T01:56:10.150Z,13.88
2017-01-06T01:57:09.761Z,13.4
2017-01-06T01:58:10.116Z,13.3
2017-01-06T01:59:09.777Z,13.88
2017-01-06T02:00:10.137Z,13.87
2017-01-06T02:02:09.752Z,13.4
2017-01-06T02:03:10.155Z,13.78
2017-01-06T02:04:09.818Z,13.68
2017-01-06T02:05:10.171Z,13.39
2017-01-06T02:06:10.182Z,13.4
2017-01-06T02:07:09.792Z,13.78
2017-01-06T02:08:09.850Z,13.58
2017-01-06T02:09:09.906Z,13.68
2017-01-06T02:10:10.259Z,13.4
2017-01-06T02:11:09.822Z,13.88
2017-01-06T02:12:10.278Z,13.78
2017-01-06T02:13:09.888Z,13.59
2017-01-06T02:14:10.242Z,13.68
2017-01-06T02:15:09.958Z,13.78
2017-01-06T02:16:10.257Z,13.78
2017-01-06T02:17:09.869Z,13.78
2017-01-06T02:18:10.324Z,13.78
2017-01-06T02:19:10.335Z,13.58
2017-01-06T02:20:10.339Z,13.78
2017-01-06T02:21:09.901Z,13.78
2017-01-06T02:22:10.355Z,13.58
2017-01-06T02:23:09.916Z,13.78
2017-01-06T02:24:09.972Z,13.68
2017-01-06T02:25:10.232Z,13.87
2017-01-06T02:26:10.335Z,13.59
2017-01-06T02:27:09.948Z,13.78
2017-01-06T02:28:10.057Z,13.68
2017-01-06T02:29:10.360Z,13.59
2017-01-06T02:30:10.371Z,13.78
2017-01-06T02:31:10.424Z,13.78
2017-01-06T02:32:10.482Z,13.78
2017-01-06T02:33:10.043Z,13.78
2017-01-06T02:34:10.003Z,13.68
2017-01-06T02:35:10.505Z,13.68
2017-01-06T02:36:10.068Z,13.68
2017-01-06T02:37:10.024Z,13.48
2017-01-06T02:38:10.431Z,13.78
2017-01-06T02:39:10.441Z,13.68
2017-01-06T02:40:10.545Z,13.78
2017-01-06T02:41:10.453Z,13.68
2017-01-06T02:42:10.513Z,13.78
2017-01-06T02:43:10.071Z,13.58
2017-01-06T02:44:10.474Z,13.78
2017-01-06T02:45:10.139Z,13.68
2017-01-06T02:46:10.099Z,13.78
2017-01-06T02:47:10.556Z,13.58
2017-01-06T02:48:10.510Z,13.4
2017-01-06T02:49:10.568Z,13.78
2017-01-06T02:50:10.524Z,13.68
2017-01-06T02:51:10.579Z,13.2
2017-01-06T02:52:10.538Z,13.58
2017-01-06T02:53:10.200Z,13.59
2017-01-06T02:54:10.552Z,13.59
2017-01-06T02:55:10.562Z,13.68
2017-01-06T02:56:10.523Z,13.68
2017-01-06T02:57:10.576Z,13.68
2017-01-06T02:58:10.189Z,13.68
2017-01-06T02:59:10.196Z,13.68
2017-01-06T03:00:10.605Z,13.48
2017-01-06T03:01:10.261Z,13.98
2017-01-06T03:02:10.668Z,13.3
2017-01-06T03:03:10.276Z,13.68
2017-01-06T03:04:10.235Z,13.4
2017-01-06T03:05:10.293Z,13.59
2017-01-06T03:06:10.697Z,13.68
2017-01-06T03:07:10.705Z,13.58
2017-01-06T03:08:10.265Z,13.39
2017-01-06T03:09:10.668Z,13.78
2017-01-06T03:10:10.333Z,13.59
2017-01-06T03:11:10.341Z,13.78
2017-01-06T03:12:10.348Z,13.59
2017-01-06T03:13:10.702Z,13.68
2017-01-06T03:14:10.367Z,13.78
2017-01-06T03:15:10.716Z,13.68
2017-01-06T03:16:10.330Z,13.78
2017-01-06T03:17:10.387Z,13.59
2017-01-06T03:18:10.794Z,13.88
2017-01-06T03:19:10.355Z,13.49
2017-01-06T03:20:10.756Z,13.1
2017-01-06T03:21:10.419Z,13.4
2017-01-06T03:22:10.822Z,13.78
2017-01-06T03:23:10.386Z,13.98
2017-01-06T03:24:10.393Z,13.78
2017-01-06T03:25:10.451Z,13.78
2017-01-06T03:26:10.853Z,13.2
2017-01-06T03:27:10.964Z,13.58
2017-01-06T03:28:10.822Z,13.59
2017-01-06T03:29:10.432Z,13.88
2017-01-06T03:30:10.836Z,13.3
2017-01-06T03:31:10.498Z,13.3
2017-01-06T03:32:10.854Z,13.1
2017-01-06T03:33:10.959Z,13.3
2017-01-06T03:34:10.471Z,13.68
2017-01-06T03:35:10.532Z,13.2
2017-01-06T03:36:11.236Z,13.78
2017-01-06T03:37:10.495Z,13.78
2017-01-06T03:38:10.898Z,13.3
2017-01-06T03:39:10.812Z,13.88
2017-01-06T03:40:10.569Z,13.78
2017-01-06T03:41:10.526Z,13.59
2017-01-06T03:42:10.980Z,13.97
2017-01-06T03:43:10.542Z,13.39
2017-01-06T03:44:10.598Z,13.2
2017-01-06T03:45:10.659Z,13.49
2017-01-06T03:46:11.013Z,13.2
2017-01-06T03:47:10.574Z,13.4
2017-01-06T03:48:10.977Z,13.3
2017-01-06T03:49:11.038Z,13.3
2017-01-06T03:50:10.649Z,13.2
2017-01-06T03:51:11.000Z,13.3
2017-01-06T03:52:11.011Z,13.3
2017-01-06T03:53:10.621Z,13.3
2017-01-06T03:54:10.679Z,13.3
2017-01-06T03:55:11.080Z,13.4
2017-01-06T03:56:10.696Z,13.3
2017-01-06T03:57:11.100Z,13.49
2017-01-06T03:58:10.712Z,13.2
2017-01-06T03:59:10.668Z,13.3
2017-01-06T04:00:10.676Z,13.3
2017-01-06T04:01:10.685Z,13.3
2017-01-06T04:02:10.699Z,13.3
2017-01-06T04:03:11.196Z,13.4
2017-01-06T04:04:10.707Z,13.3
2017-01-06T04:05:11.159Z,13.4
2017-01-06T04:06:10.722Z,13.3
2017-01-06T04:07:10.730Z,13.4
2017-01-06T04:08:10.791Z,13.4
2017-01-06T04:09:11.243Z,13.49
2017-01-06T04:10:10.857Z,13.2
2017-01-06T04:11:11.210Z,13.4
2017-01-06T04:12:10.773Z,13.2
2017-01-06T04:13:11.178Z,13.4
2017-01-06T04:14:11.182Z,13.2
2017-01-06T04:15:10.848Z,13.2
2017-01-06T04:16:10.854Z,13.2
2017-01-06T04:17:10.810Z,13.4
2017-01-06T04:18:11.217Z,13.3
2017-01-06T04:19:10.827Z,13.1
2017-01-06T04:20:11.291Z,13.2
2017-01-06T04:21:11.338Z,13.4
2017-01-06T04:22:10.850Z,13.4
2017-01-06T04:23:10.859Z,13.2
2017-01-06T04:24:11.364Z,13.59
2017-01-06T04:25:11.276Z,13.3
2017-01-06T04:26:11.279Z,13.49
2017-01-06T04:27:10.890Z,13.49
2017-01-06T04:28:11.344Z,13.3
2017-01-06T04:29:10.952Z,13.49
2017-01-06T04:30:11.309Z,13.3
2017-01-06T04:31:10.922Z,13.49
2017-01-06T04:32:10.927Z,13.2
2017-01-06T04:33:11.338Z,13.4
2017-01-06T04:34:10.995Z,13.3
2017-01-06T04:35:10.953Z,13.49
2017-01-06T04:36:11.410Z,13.2
2017-01-06T04:37:11.365Z,13.1
2017-01-06T04:38:11.375Z,13.2
2017-01-06T04:39:11.429Z,13.1
2017-01-06T04:40:11.043Z,13.2
2017-01-06T04:41:11.006Z,13.3
2017-01-06T04:42:11.406Z,13.59
2017-01-06T04:43:11.016Z,13.49
2017-01-06T04:44:11.419Z,13.49
2017-01-06T04:45:11.527Z,13.3
2017-01-06T04:46:11.436Z,13.2
2017-01-06T04:47:11.543Z,13.3
2017-01-06T04:48:11.134Z,13.1
2017-01-06T04:49:11.560Z,13.49
2017-01-06T04:50:11.119Z,13.2
2017-01-06T04:51:11.526Z,13.2
2017-01-06T04:52:11.533Z,13.3
2017-01-06T04:53:11.493Z,13.59
2017-01-06T04:54:11.153Z,13.49
2017-01-06T04:55:11.554Z,13.59
2017-01-06T04:56:11.517Z,13.49
2017-01-06T04:57:11.525Z,13.3
2017-01-06T04:58:11.532Z,13.68
2017-01-06T04:59:11.190Z,13.2
2017-01-06T05:00:11.199Z,13.4
2017-01-06T05:01:11.206Z,13.2
2017-01-06T05:02:11.660Z,13.3
2017-01-06T05:03:11.247Z,13.49
2017-01-06T05:04:11.231Z,13.4
2017-01-06T05:05:11.635Z,13.1
2017-01-06T05:06:11.594Z,13.4
2017-01-06T05:07:11.651Z,13.2
2017-01-06T05:08:11.910Z,13.3
2017-01-06T05:09:11.268Z,13.3
2017-01-06T05:10:11.627Z,13.59
2017-01-06T05:11:11.683Z,13.49
2017-01-06T05:12:11.687Z,13.59
2017-01-06T05:13:11.647Z,13.49
2017-01-06T05:14:11.261Z,13.49
2017-01-06T05:15:11.267Z,13.4
2017-01-06T05:16:11.274Z,13.4
2017-01-06T05:17:11.335Z,13.1
2017-01-06T05:18:11.345Z,13.2
2017-01-06T05:19:11.351Z,13.1
2017-01-06T05:20:11.304Z,13.2
2017-01-06T05:21:11.366Z,13.2
2017-01-06T05:22:11.766Z,13.2
2017-01-06T05:23:11.728Z,13.3
2017-01-06T05:24:11.783Z,13.2
2017-01-06T05:25:11.395Z,13.2
2017-01-06T05:26:11.354Z,13.2
2017-01-06T05:27:11.755Z,13.01
2017-01-06T05:28:11.812Z,13.1
2017-01-06T05:29:11.776Z,13.3
2017-01-06T05:30:11.830Z,13.3
2017-01-06T05:31:11.838Z,13.49
2017-01-06T05:32:11.455Z,13.2
2017-01-06T05:33:11.905Z,13.4
2017-01-06T05:34:11.467Z,13.49
2017-01-06T05:35:11.823Z,13.3
2017-01-06T05:36:11.432Z,13.4
2017-01-06T05:37:11.495Z,13.1
2017-01-06T05:38:11.893Z,13.1
2017-01-06T05:39:11.460Z,13.3
2017-01-06T05:40:11.563Z,13.2
2017-01-06T05:41:11.871Z,13.4
2017-01-06T05:42:11.879Z,13.1
2017-01-06T05:43:11.487Z,13.2
2017-01-06T05:44:11.993Z,13.1
2017-01-06T05:45:12.002Z,13.01
2017-01-06T05:46:11.559Z,13.3
2017-01-06T05:47:11.918Z,13.2
2017-01-06T05:48:11.923Z,13.3
2017-01-06T05:49:11.981Z,13.1
2017-01-06T05:50:11.990Z,13.2
2017-01-06T05:51:11.603Z,13.1
2017-01-06T05:52:12.004Z,13.2
2017-01-06T05:53:11.568Z,13.2
2017-01-06T05:54:11.576Z,13.4
2017-01-06T05:55:12.080Z,13.3
2017-01-06T05:56:12.036Z,13.1
2017-01-06T05:57:11.995Z,13.3
2017-01-06T05:58:11.608Z,13.4
2017-01-06T05:59:12.064Z,13.2
2017-01-06T06:00:12.067Z,13.1
2017-01-06T06:01:12.126Z,13.3
2017-01-06T06:02:12.086Z,13.2
2017-01-06T06:03:11.648Z,13.2
2017-01-06T06:04:12.102Z,13.3
2017-01-06T06:05:12.159Z,13.2
2017-01-06T06:06:11.723Z,13.3
2017-01-06T06:07:12.073Z,13.4
2017-01-06T06:08:11.736Z,13.3
2017-01-06T06:09:12.093Z,13.2
2017-01-06T06:10:12.149Z,13.49
2017-01-06T06:11:12.158Z,13.4
2017-01-06T06:12:11.821Z,13.4
2017-01-06T06:13:11.777Z,13.3
2017-01-06T06:14:11.737Z,13.4
2017-01-06T06:15:12.189Z,13.3
2017-01-06T06:16:11.753Z,13.2
2017-01-06T06:17:12.161Z,13.2
2017-01-06T06:18:11.766Z,13.2
2017-01-06T06:19:12.172Z,13.2
2017-01-06T06:20:11.832Z,13.2
2017-01-06T06:21:11.843Z,12.81
2017-01-06T06:22:12.241Z,13.2
2017-01-06T06:23:11.856Z,13.4
2017-01-06T06:24:12.262Z,13.4
2017-01-06T06:25:12.218Z,13.3
2017-01-06T06:26:12.276Z,13.4
2017-01-06T06:27:12.335Z,13.3
2017-01-06T06:28:12.240Z,13.2
2017-01-06T06:29:12.251Z,13.3
2017-01-06T06:30:11.910Z,13.4
2017-01-06T06:31:12.315Z,13.1
2017-01-06T06:32:12.272Z,13.1
2017-01-06T06:33:12.384Z,13.4
2017-01-06T06:34:12.289Z,13.4
2017-01-06T06:35:11.902Z,13.01
2017-01-06T06:36:11.909Z,13.2
2017-01-06T06:37:12.312Z,13.2
2017-01-06T06:38:11.924Z,13.2
2017-01-06T06:39:12.328Z,13.1
2017-01-06T06:40:11.988Z,13.2
2017-01-06T06:41:11.950Z,13.3
2017-01-06T06:42:12.405Z,13.2
2017-01-06T06:43:12.362Z,13.2
2017-01-06T06:44:12.020Z,13.3
2017-01-06T06:45:12.429Z,13.2
2017-01-06T06:46:12.038Z,13.01
2017-01-06T06:47:12.047Z,13.49
2017-01-06T06:48:12.007Z,13.2
2017-01-06T06:49:12.458Z,13.01
2017-01-06T06:50:12.417Z,13.4
2017-01-06T06:51:12.426Z,13.2
2017-01-06T06:52:12.431Z,13.3
2017-01-06T06:53:12.041Z,13.3
2017-01-06T06:54:12.447Z,13.2
2017-01-06T06:55:12.458Z,13.2
2017-01-06T06:56:12.564Z,13.2
2017-01-06T06:57:12.519Z,13.2
2017-01-06T06:58:12.081Z,13.01
2017-01-06T06:59:12.142Z,13.3
2017-01-06T07:00:12.543Z,13.2
2017-01-06T07:01:12.505Z,13.2
2017-01-06T07:02:12.562Z,13.3
2017-01-06T07:03:12.519Z,13.1
2017-01-06T07:04:12.227Z,13.01
2017-01-06T07:05:12.630Z,13.3
2017-01-06T07:06:12.154Z,13.01
2017-01-06T07:07:12.549Z,13.1
2017-01-06T07:08:12.607Z,13.1
2017-01-06T07:09:12.563Z,13.1
2017-01-06T07:10:12.227Z,13.2
2017-01-06T07:11:12.183Z,13.3
2017-01-06T07:12:12.190Z,12.52
2017-01-06T07:13:12.593Z,13.2
2017-01-06T07:14:12.600Z,13.3
2017-01-06T07:15:12.214Z,12.52
2017-01-06T07:16:12.272Z,13.01
2017-01-06T07:17:12.226Z,13.3
2017-01-06T07:18:12.731Z,12.91
2017-01-06T07:19:12.245Z,13.2
2017-01-06T07:20:12.697Z,12.52
2017-01-06T07:21:12.258Z,12.62
2017-01-06T07:22:12.319Z,13.01
2017-01-06T07:23:12.324Z,13.1
2017-01-06T07:24:12.680Z,12.91
2017-01-06T07:25:12.301Z,12.43
2017-01-06T07:26:12.348Z,12.52
2017-01-06T07:27:12.357Z,13.3
2017-01-06T07:28:12.714Z,13.3
2017-01-06T07:29:12.718Z,13.1
2017-01-06T07:30:12.333Z,13.1
2017-01-06T07:31:12.734Z,12.91
2017-01-06T07:32:12.345Z,12.62
2017-01-06T07:33:12.750Z,12.52
2017-01-06T07:34:12.857Z,12.52
2017-01-06T07:35:12.872Z,12.24
2017-01-06T07:36:12.824Z,11.66
2017-01-06T07:37:12.440Z,11.95
2017-01-06T07:38:12.391Z,11.66
2017-01-06T07:39:12.796Z,11.47
2017-01-06T07:40:12.854Z,11.57
2017-01-06T07:41:12.859Z,11.18
2017-01-06T07:42:12.471Z,11.18
2017-01-06T07:43:12.432Z,11.18
2017-01-06T07:44:12.888Z,11.08
2017-01-06T07:45:12.944Z,10.89
2017-01-06T07:46:12.854Z,10.89
2017-01-06T07:47:12.911Z,10.89
2017-01-06T07:48:12.523Z,10.8
2017-01-06T07:49:12.530Z,10.51
2017-01-06T07:50:12.884Z,10.7
2017-01-06T07:51:12.797Z,10.7
2017-01-06T07:52:12.509Z,10.41
2017-01-06T07:53:12.913Z,10.51
2017-01-06T07:54:12.917Z,10.51
2017-01-06T07:55:12.973Z,10.51
2017-01-06T07:56:12.985Z,10.51
2017-01-06T07:57:12.995Z,10.9
2017-01-06T07:58:12.554Z,10.9
2017-01-06T07:59:12.612Z,10.71
2017-01-06T08:00:12.971Z,10.32
2017-01-06T08:01:12.976Z,10.9
2017-01-06T08:02:12.703Z,10.8
2017-01-06T08:03:13.044Z,10.51
2017-01-06T08:04:12.663Z,10.03
2017-01-06T08:05:13.014Z,10.03
2017-01-06T08:06:13.072Z,10.8
2017-01-06T08:07:13.132Z,10.51
2017-01-06T08:08:13.090Z,10.42
2017-01-06T08:09:13.048Z,10.32
2017-01-06T08:10:13.058Z,10.32
2017-01-06T08:11:13.066Z,10.51
2017-01-06T08:12:13.078Z,10.32
2017-01-06T08:13:13.084Z,10.32
2017-01-06T08:14:13.144Z,10.32
2017-01-06T08:15:12.710Z,10.8
2017-01-06T08:16:12.713Z,10.8
2017-01-06T08:17:13.169Z,10.41
2017-01-06T08:18:13.179Z,10.22
2017-01-06T08:19:13.238Z,10.22
2017-01-06T08:20:13.196Z,10.61
2017-01-06T08:21:13.155Z,10.52
2017-01-06T08:22:12.916Z,10.32
2017-01-06T08:23:13.223Z,10.22
2017-01-06T08:24:12.784Z,10.22
2017-01-06T08:25:12.894Z,10.41
2017-01-06T08:26:13.257Z,10.13
2017-01-06T08:27:13.210Z,10.32
2017-01-06T08:28:13.216Z,10.71
2017-01-06T08:29:12.882Z,10.32
2017-01-06T08:30:13.235Z,10.03
2017-01-06T08:31:12.897Z,10.32
2017-01-06T08:32:13.305Z,10.61
2017-01-06T08:33:13.321Z,10.52
2017-01-06T08:34:13.324Z,10.32
2017-01-06T08:35:13.282Z,10.8
2017-01-06T08:36:13.343Z,10.71
2017-01-06T08:37:13.300Z,10.03
2017-01-06T08:38:12.911Z,10.22
2017-01-06T08:39:13.367Z,10.41
2017-01-06T08:40:12.977Z,10.51
2017-01-06T08:41:13.433Z,10.61
2017-01-06T08:42:12.949Z,10.61
2017-01-06T08:43:12.958Z,10.61
2017-01-06T08:44:13.364Z,10.61
2017-01-06T08:45:13.077Z,10.8
2017-01-06T08:46:13.380Z,10.51
2017-01-06T08:47:12.998Z,10.61
2017-01-06T08:48:13.023Z,10.51
2017-01-06T08:49:13.011Z,10.51
2017-01-06T08:50:13.468Z,10.8
2017-01-06T08:51:13.027Z,10.71
2017-01-06T08:52:13.142Z,10.51
2017-01-06T08:53:13.445Z,10.51
2017-01-06T08:54:13.456Z,10.51
2017-01-06T08:55:13.465Z,10.41
2017-01-06T08:56:13.138Z,10.61
2017-01-06T08:57:13.482Z,10.22
2017-01-06T08:58:13.542Z,10.51
2017-01-06T08:59:13.551Z,10.51
2017-01-06T09:00:13.164Z,10.41
2017-01-06T09:01:13.569Z,10.51
2017-01-06T09:02:13.528Z,10.13
2017-01-06T09:03:13.143Z,10.42
2017-01-06T09:04:13.601Z,10.32
2017-01-06T09:05:13.608Z,10.22
2017-01-06T09:06:13.619Z,10.42
2017-01-06T09:07:13.233Z,10.42
2017-01-06T09:08:13.193Z,10.32
2017-01-06T09:09:13.255Z,10.61
2017-01-06T09:10:13.263Z,10.42
2017-01-06T09:11:13.223Z,10.03
2017-01-06T09:12:13.684Z,10.23
2017-01-06T09:13:13.640Z,10.52
2017-01-06T09:14:13.699Z,10.32
2017-01-06T09:15:13.662Z,10.32
2017-01-06T09:16:13.724Z,10.42
2017-01-06T09:17:13.286Z,10.32
2017-01-06T09:18:13.739Z,10.23
2017-01-06T09:19:13.356Z,10.33
2017-01-06T09:20:13.619Z,9.94
2017-01-06T09:21:13.382Z,10.23
2017-01-06T09:22:13.734Z,10.03
2017-01-06T09:23:13.745Z,10.13
2017-01-06T09:24:13.807Z,10.03
2017-01-06T09:25:13.821Z,10.23
2017-01-06T09:26:13.830Z,10.03
2017-01-06T09:27:13.495Z,10.03
2017-01-06T09:28:13.404Z,10.52
2017-01-06T09:29:13.814Z,10.23
2017-01-06T09:30:13.432Z,10.13
2017-01-06T09:31:13.886Z,10.23
2017-01-06T09:32:13.848Z,10.13
2017-01-06T09:33:13.909Z,10.23
2017-01-06T09:34:13.869Z,10.13
2017-01-06T09:35:13.483Z,10.33
2017-01-06T09:36:13.494Z,10.23
2017-01-06T09:37:13.949Z,10.23
2017-01-06T09:38:13.911Z,10.52
2017-01-06T09:39:14.272Z,10.42
2017-01-06T09:40:13.984Z,10.33
2017-01-06T09:41:13.595Z,10.42
2017-01-06T09:42:13.954Z,10.42
2017-01-06T09:43:13.968Z,10.33
2017-01-06T09:44:14.030Z,10.42
2017-01-06T09:45:13.586Z,10.33
2017-01-06T09:46:14.020Z,10.42
2017-01-06T09:47:14.054Z,10.52
2017-01-06T09:48:14.065Z,10.42
2017-01-06T09:49:14.025Z,10.42
2017-01-06T09:50:14.032Z,10.33
2017-01-06T09:51:13.648Z,10.03
2017-01-06T09:52:14.087Z,10.61
2017-01-06T09:53:13.664Z,10.52
2017-01-06T09:54:14.070Z,10.33
2017-01-06T09:55:13.734Z,10.81
2017-01-06T09:56:14.141Z,10.42
2017-01-06T09:57:14.150Z,10.71
2017-01-06T09:58:13.714Z,10.81
2017-01-06T09:59:13.722Z,10.81
2017-01-06T10:00:13.790Z,10.52
2017-01-06T10:01:14.190Z,10.61
2017-01-06T10:02:13.801Z,10.52
2017-01-06T10:03:13.762Z,10.81
2017-01-06T10:04:14.167Z,10.32
2017-01-06T10:05:13.831Z,10.52
2017-01-06T10:06:13.842Z,10.81
2017-01-06T10:07:13.856Z,10.71
2017-01-06T10:08:13.810Z,10.71
2017-01-06T10:09:14.266Z,10.42
2017-01-06T10:10:13.881Z,10.61
2017-01-06T10:11:14.542Z,10.61
2017-01-06T10:12:14.294Z,10.61
2017-01-06T10:13:14.309Z,10.61
2017-01-06T10:14:14.263Z,10.52
2017-01-06T10:15:14.373Z,10.61
2017-01-06T10:16:14.333Z,10.51
2017-01-06T10:17:14.391Z,10.22
2017-01-06T10:18:14.306Z,10.61
2017-01-06T10:19:14.310Z,10.71
2017-01-06T10:20:14.376Z,10.71
2017-01-06T10:21:13.934Z,10.52
2017-01-06T10:22:13.994Z,10.52
2017-01-06T10:23:14.003Z,10.51
2017-01-06T10:24:14.408Z,10.8
2017-01-06T10:25:14.025Z,10.71
2017-01-06T10:26:14.082Z,10.51
2017-01-06T10:27:14.437Z,11
2017-01-06T10:28:14.000Z,10.61
2017-01-06T10:29:14.063Z,11.1
2017-01-06T10:30:14.416Z,10.71
2017-01-06T10:31:14.027Z,10.61
2017-01-06T10:32:14.482Z,10.51
2017-01-06T10:33:14.443Z,10.51
2017-01-06T10:34:14.552Z,10.41
2017-01-06T10:35:14.509Z,10.61
2017-01-06T10:36:14.469Z,10.61
2017-01-06T10:37:14.132Z,10.41
2017-01-06T10:38:14.487Z,10.8
2017-01-06T10:39:14.151Z,10.51
2017-01-06T10:40:14.108Z,10.9
2017-01-06T10:41:14.513Z,11.29
2017-01-06T10:42:14.525Z,11.19
2017-01-06T10:43:14.581Z,11.39
2017-01-06T10:44:14.545Z,11.1
2017-01-06T10:45:14.203Z,11.19
2017-01-06T10:46:14.560Z,11.19
2017-01-06T10:47:14.223Z,11.19
2017-01-06T10:48:15.176Z,11.09
2017-01-06T10:49:14.289Z,11
2017-01-06T10:50:14.652Z,11
2017-01-06T10:51:14.604Z,11.19
2017-01-06T10:52:14.659Z,11.48
2017-01-06T10:53:14.326Z,11.38
2017-01-06T10:54:14.678Z,11.38
2017-01-06T10:55:14.238Z,11.48
2017-01-06T10:56:14.647Z,11.39
2017-01-06T10:57:14.705Z,11.49
2017-01-06T10:58:14.713Z,11.58
2017-01-06T10:59:14.672Z,11.58
2017-01-06T11:00:14.733Z,11.88
2017-01-06T11:01:14.692Z,11.48
2017-01-06T11:02:14.353Z,11.87
2017-01-06T11:03:14.359Z,11.87
2017-01-06T11:04:14.368Z,11.97
2017-01-06T11:05:14.721Z,11.87
2017-01-06T11:06:14.336Z,11.77
2017-01-06T11:07:14.845Z,11.87
2017-01-06T11:08:14.356Z,11.58
2017-01-06T11:09:14.364Z,11.87
2017-01-06T11:10:14.418Z,11.97
2017-01-06T11:11:14.380Z,11.87
2017-01-06T11:12:14.388Z,11.97
2017-01-06T11:13:14.842Z,11.68
2017-01-06T11:14:14.853Z,11.58
2017-01-06T11:15:14.412Z,11.98
2017-01-06T11:16:14.868Z,11.98
2017-01-06T11:17:14.825Z,11.78
2017-01-06T11:18:14.885Z,12.46
2017-01-06T11:19:14.844Z,12.26
2017-01-06T11:20:14.901Z,12.26
2017-01-06T11:21:14.911Z,12.36
2017-01-06T11:22:14.884Z,12.07
2017-01-06T11:23:14.927Z,12.36
2017-01-06T11:24:14.937Z,12.36
2017-01-06T11:25:14.946Z,12.07
2017-01-06T11:26:14.903Z,12.36
2017-01-06T11:27:14.565Z,12.17
2017-01-06T11:28:14.573Z,12.16
2017-01-06T11:29:14.585Z,12.16
2017-01-06T11:30:14.986Z,12.55
2017-01-06T11:31:14.607Z,12.36
2017-01-06T11:32:15.005Z,12.36
2017-01-06T11:33:15.017Z,12.46
2017-01-06T11:34:14.581Z,12.55
2017-01-06T11:35:15.331Z,12.26
2017-01-06T11:36:15.045Z,12.36
2017-01-06T11:37:14.998Z,12.55
2017-01-06T11:38:14.610Z,12.55
2017-01-06T11:39:14.619Z,12.27
2017-01-06T11:40:15.024Z,12.17
2017-01-06T11:41:14.684Z,12.55
2017-01-06T11:42:15.091Z,12.36
2017-01-06T11:43:14.702Z,12.46
2017-01-06T11:44:15.109Z,12.36
2017-01-06T11:45:15.115Z,12.26
2017-01-06T11:46:14.679Z,12.65
2017-01-06T11:47:15.149Z,12.36
2017-01-06T11:48:14.695Z,12.46
2017-01-06T11:49:14.717Z,12.27
2017-01-06T11:50:14.762Z,12.46
2017-01-06T11:51:15.119Z,12.27
2017-01-06T11:52:14.795Z,12.26
2017-01-06T11:53:14.801Z,12.37
2017-01-06T11:54:14.846Z,12.55
2017-01-06T11:55:14.751Z,12.27
2017-01-06T11:56:15.210Z,12.65
2017-01-06T11:57:15.169Z,12.85
2017-01-06T11:58:15.176Z,12.74
2017-01-06T11:59:14.839Z,12.94
2017-01-06T12:00:14.847Z,12.84
2017-01-06T12:01:15.253Z,12.95
2017-01-06T12:02:14.816Z,12.84
2017-01-06T12:03:15.321Z,12.94
2017-01-06T12:04:15.285Z,12.74
2017-01-06T12:05:15.238Z,12.55
2017-01-06T12:06:14.896Z,12.84
2017-01-06T12:07:14.867Z,13.04
2017-01-06T12:08:15.613Z,12.84
2017-01-06T12:09:14.923Z,12.74
2017-01-06T12:10:15.279Z,12.55
2017-01-06T12:11:15.337Z,12.94
2017-01-06T12:12:14.900Z,12.84
2017-01-06T12:13:15.402Z,12.85
2017-01-06T12:14:14.981Z,12.65
2017-01-06T12:15:15.332Z,12.84
2017-01-06T12:16:15.378Z,12.84
2017-01-06T12:17:15.335Z,12.65
2017-01-06T12:18:14.959Z,12.94
2017-01-06T12:19:15.008Z,12.84
2017-01-06T12:20:15.412Z,12.65
2017-01-06T12:21:15.422Z,12.84
2017-01-06T12:22:15.430Z,12.55
2017-01-06T12:23:15.442Z,12.74
2017-01-06T12:24:15.101Z,12.36
2017-01-06T12:25:15.024Z,12.36
2017-01-06T12:26:15.466Z,12.37
2017-01-06T12:27:15.522Z,12.55
2017-01-06T12:28:15.137Z,12.65
2017-01-06T12:29:15.438Z,12.65
2017-01-06T12:30:15.498Z,12.55
2017-01-06T12:31:15.455Z,12.65
2017-01-06T12:32:15.119Z,12.27
2017-01-06T12:33:15.476Z,12.36
2017-01-06T12:34:15.089Z,12.36
2017-01-06T12:35:15.491Z,12.46
2017-01-06T12:36:15.102Z,12.55
2017-01-06T12:37:15.160Z,12.37
2017-01-06T12:38:15.565Z,12.27
2017-01-06T12:39:15.574Z,12.27
2017-01-06T12:40:15.834Z,12.55
2017-01-06T12:41:15.198Z,12.26
2017-01-06T12:42:15.599Z,12.07
2017-01-06T12:43:15.658Z,11.98
2017-01-06T12:44:15.568Z,12.46
2017-01-06T12:45:15.624Z,12.37
2017-01-06T12:46:15.188Z,12.36
2017-01-06T12:47:15.643Z,12.46
2017-01-06T12:48:15.653Z,12.27
2017-01-06T12:49:15.613Z,11.98
2017-01-06T12:50:15.223Z,12.27
2017-01-06T12:51:15.631Z,12.46
2017-01-06T12:52:15.288Z,12.36
2017-01-06T12:53:15.298Z,12.36
2017-01-06T12:54:15.753Z,12.26
2017-01-06T12:55:15.317Z,12.37
2017-01-06T12:56:15.324Z,11.58
2017-01-06T12:57:15.676Z,12.17
2017-01-06T12:58:15.369Z,12.46
2017-01-06T12:59:15.698Z,12.36
2017-01-06T13:00:15.754Z,12.36